sensor_id;sensor_type;location;lat;lon;timestamp;P1;durP1;ratioP1;P2;durP2;ratioP2
13368;SDS011;6753;52.520;13.450;2022-11-15T21:04:02;1003.00;;;828.47;;
13368;SDS011;6753;52.520;13.450;2022-11-15T21:04:14;1214.10;;;944.65;;
13368;SDS011;6753;52.520;13.450;2022-11-15T21:04:25;1287.28;;;977.50;;
13368;SDS011;6753;52.520;13.450;2022-11-15T21:04:36;1339.50;;;999.90;;
13368;SDS011;6753;52.520;13.450;2022-11-15T21:04:47;1361.88;;;999.90;;
13368;SDS011;6753;52.520;13.450;2022-11-15T21:04:57;1347.70;;;999.90;;
13368;SDS011;6753;52.520;13.450;2022-11-15T21:05:08;1347.50;;;999.90;;
13368;SDS011;6753;52.520;13.450;2022-11-15T21:05:19;1288.78;;;982.70;;
13368;SDS011;6753;52.520;13.450;2022-11-15T21:05:30;1189.65;;;935.00;;
13368;SDS011;6753;52.520;13.450;2022-11-15T21:05:43;1060.30;;;874.50;;
13368;SDS011;6753;52.520;13.450;2022-11-15T21:05:54;1000.80;;;840.25;;
13368;SDS011;6753;52.520;13.450;2022-11-15T21:06:05;960.70;;;819.20;;
13368;SDS011;6753;52.520;13.450;2022-11-15T21:06:17;916.85;;;791.13;;
13368;SDS011;6753;52.520;13.450;2022-11-15T21:06:29;895.85;;;778.10;;
13368;SDS011;6753;52.520;13.450;2022-11-15T21:06:40;889.00;;;773.15;;
13368;SDS011;6753;52.520;13.450;2022-11-15T21:06:51;884.97;;;769.22;;
13368;SDS011;6753;52.520;13.450;2022-11-15T21:07:02;880.45;;;768.35;;
13368;SDS011;6753;52.520;13.450;2022-11-15T21:07:13;924.50;;;793.93;;
13368;SDS011;6753;52.520;13.450;2022-11-15T21:07:24;968.80;;;820.17;;
13368;SDS011;6753;52.520;13.450;2022-11-15T21:07:35;1012.83;;;847.75;;
13368;SDS011;6753;52.520;13.450;2022-11-15T21:07:46;1037.45;;;865.83;;
13368;SDS011;6753;52.520;13.450;2022-11-15T21:07:57;1059.30;;;880.63;;
13368;SDS011;6753;52.520;13.450;2022-11-15T21:08:08;1071.53;;;887.78;;
13368;SDS011;6753;52.520;13.450;2022-11-15T21:08:19;1015.53;;;858.42;;
13368;SDS011;6753;52.520;13.450;2022-11-15T21:08:30;1001.78;;;849.67;;
13368;SDS011;6753;52.520;13.450;2022-11-15T21:09:01;939.53;;;809.17;;
13368;SDS011;6753;52.520;13.450;2022-11-15T21:09:31;897.42;;;784.63;;
13368;SDS011;6753;52.520;13.450;2022-11-15T21:10:00;1036.28;;;860.97;;
13368;SDS011;6753;52.520;13.450;2022-11-15T21:10:29;1105.80;;;899.63;;
13368;SDS011;6753;52.520;13.450;2022-11-15T21:10:59;1068.30;;;887.55;;
13368;SDS011;6753;52.520;13.450;2022-11-15T21:11:29;1050.80;;;887.20;;
13368;SDS011;6753;52.520;13.450;2022-11-15T21:11:59;1022.00;;;869.65;;
13368;SDS011;6753;52.520;13.450;2022-11-15T21:12:22;1079.47;;;891.75;;
13368;SDS011;6753;52.520;13.450;2022-11-15T21:12:33;1087.35;;;893.20;;
13368;SDS011;6753;52.520;13.450;2022-11-15T21:12:44;1059.20;;;873.45;;
13368;SDS011;6753;52.520;13.450;2022-11-15T21:12:55;1050.45;;;865.17;;
13368;SDS011;6753;52.520;13.450;2022-11-15T21:13:06;1016.97;;;849.67;;
13368;SDS011;6753;52.520;13.450;2022-11-15T21:13:16;988.40;;;834.42;;
13368;SDS011;6753;52.520;13.450;2022-11-15T21:13:27;927.92;;;802.53;;
13368;SDS011;6753;52.520;13.450;2022-11-15T21:13:38;917.63;;;796.88;;
13368;SDS011;6753;52.520;13.450;2022-11-15T21:13:51;918.33;;;800.45;;
13368;SDS011;6753;52.520;13.450;2022-11-15T21:14:01;906.28;;;792.08;;
13368;SDS011;6753;52.520;13.450;2022-11-15T21:14:12;895.13;;;785.90;;
13368;SDS011;6753;52.520;13.450;2022-11-15T21:14:23;903.42;;;792.70;;
13368;SDS011;6753;52.520;13.450;2022-11-15T21:14:34;909.93;;;797.57;;
13368;SDS011;6753;52.520;13.450;2022-11-15T21:14:45;897.00;;;787.38;;
13368;SDS011;6753;52.520;13.450;2022-11-15T21:14:58;881.33;;;774.22;;
13368;SDS011;6753;52.520;13.450;2022-11-15T21:15:09;893.80;;;781.30;;
13368;SDS011;6753;52.520;13.450;2022-11-15T21:15:20;892.23;;;778.50;;
13368;SDS011;6753;52.520;13.450;2022-11-15T21:15:31;890.53;;;772.25;;
13368;SDS011;6753;52.520;13.450;2022-11-15T21:15:45;895.55;;;774.28;;
13368;SDS011;6753;52.520;13.450;2022-11-15T21:15:56;905.37;;;779.97;;
13368;SDS011;6753;52.520;13.450;2022-11-15T21:16:07;901.40;;;777.20;;
13368;SDS011;6753;52.520;13.450;2022-11-15T21:16:19;888.97;;;767.65;;
13368;SDS011;6753;52.520;13.450;2022-11-15T21:16:29;868.20;;;754.65;;
13368;SDS011;6753;52.520;13.450;2022-11-15T21:16:40;865.85;;;753.80;;
13368;SDS011;6753;52.520;13.450;2022-11-15T21:16:51;865.50;;;753.90;;
13368;SDS011;6753;52.520;13.450;2022-11-15T21:17:02;866.28;;;754.15;;
13368;SDS011;6753;52.520;13.450;2022-11-15T21:17:14;868.53;;;752.55;;
13368;SDS011;6753;52.520;13.450;2022-11-15T21:17:25;876.07;;;758.60;;
13368;SDS011;6753;52.520;13.450;2022-11-15T21:17:36;871.50;;;757.13;;
13368;SDS011;6753;52.520;13.450;2022-11-15T21:17:47;863.10;;;754.63;;
13368;SDS011;6753;52.520;13.450;2022-11-15T21:17:58;856.42;;;749.25;;
13368;SDS011;6753;52.520;13.450;2022-11-15T21:18:09;831.85;;;737.70;;
13368;SDS011;6753;52.520;13.450;2022-11-15T21:18:20;821.00;;;730.00;;
13368;SDS011;6753;52.520;13.450;2022-11-15T21:18:32;816.00;;;725.53;;
13368;SDS011;6753;52.520;13.450;2022-11-15T21:18:43;815.20;;;723.95;;
13368;SDS011;6753;52.520;13.450;2022-11-15T21:18:54;797.05;;;708.20;;
13368;SDS011;6753;52.520;13.450;2022-11-15T21:19:07;782.13;;;695.45;;
13368;SDS011;6753;52.520;13.450;2022-11-15T21:19:18;772.92;;;687.33;;
13368;SDS011;6753;52.520;13.450;2022-11-15T21:19:29;763.95;;;679.53;;
13368;SDS011;6753;52.520;13.450;2022-11-15T21:19:40;749.25;;;666.50;;
13368;SDS011;6753;52.520;13.450;2022-11-15T21:19:53;750.80;;;668.22;;
13368;SDS011;6753;52.520;13.450;2022-11-15T21:20:04;751.45;;;668.50;;
13368;SDS011;6753;52.520;13.450;2022-11-15T21:20:16;745.97;;;663.30;;
13368;SDS011;6753;52.520;13.450;2022-11-15T21:20:27;744.00;;;661.47;;
13368;SDS011;6753;52.520;13.450;2022-11-15T21:20:38;742.00;;;659.80;;
13368;SDS011;6753;52.520;13.450;2022-11-15T21:20:49;734.47;;;653.15;;
13368;SDS011;6753;52.520;13.450;2022-11-15T21:21:01;727.17;;;646.55;;
13368;SDS011;6753;52.520;13.450;2022-11-15T21:21:14;719.45;;;640.08;;
13368;SDS011;6753;52.520;13.450;2022-11-15T21:21:25;715.00;;;636.13;;
13368;SDS011;6753;52.520;13.450;2022-11-15T21:21:36;713.20;;;634.33;;
13368;SDS011;6753;52.520;13.450;2022-11-15T21:21:47;713.70;;;634.70;;
13368;SDS011;6753;52.520;13.450;2022-11-15T21:21:58;723.17;;;643.38;;
13368;SDS011;6753;52.520;13.450;2022-11-15T21:22:11;730.15;;;649.97;;
13368;SDS011;6753;52.520;13.450;2022-11-15T21:22:24;730.78;;;650.47;;
13368;SDS011;6753;52.520;13.450;2022-11-15T21:22:34;721.22;;;642.03;;
13368;SDS011;6753;52.520;13.450;2022-11-15T21:22:45;716.95;;;638.28;;
13368;SDS011;6753;52.520;13.450;2022-11-15T21:22:57;705.95;;;628.35;;
13368;SDS011;6753;52.520;13.450;2022-11-15T21:23:08;688.30;;;612.03;;
13368;SDS011;6753;52.520;13.450;2022-11-15T21:23:19;679.22;;;603.55;;
13368;SDS011;6753;52.520;13.450;2022-11-15T21:23:31;675.55;;;599.85;;
13368;SDS011;6753;52.520;13.450;2022-11-15T21:23:43;672.22;;;594.70;;
13368;SDS011;6753;52.520;13.450;2022-11-15T21:23:54;670.40;;;588.28;;
13368;SDS011;6753;52.520;13.450;2022-11-15T21:24:05;673.30;;;590.63;;
13368;SDS011;6753;52.520;13.450;2022-11-15T21:24:17;677.15;;;593.35;;
13368;SDS011;6753;52.520;13.450;2022-11-15T21:24:29;675.70;;;592.50;;
13368;SDS011;6753;52.520;13.450;2022-11-15T21:24:41;671.50;;;590.65;;
13368;SDS011;6753;52.520;13.450;2022-11-15T21:24:52;666.08;;;589.97;;
13368;SDS011;6753;52.520;13.450;2022-11-15T21:25:04;658.65;;;583.55;;
13368;SDS011;6753;52.520;13.450;2022-11-15T21:25:15;652.25;;;579.05;;
13368;SDS011;6753;52.520;13.450;2022-11-15T21:25:26;649.40;;;577.25;;
13368;SDS011;6753;52.520;13.450;2022-11-15T21:25:37;647.15;;;573.80;;
13368;SDS011;6753;52.520;13.450;2022-11-15T21:25:48;646.45;;;571.70;;
13368;SDS011;6753;52.520;13.450;2022-11-15T21:25:59;647.10;;;571.72;;
13368;SDS011;6753;52.520;13.450;2022-11-15T21:26:11;642.22;;;569.20;;
13368;SDS011;6753;52.520;13.450;2022-11-15T21:26:22;639.65;;;566.30;;
13368;SDS011;6753;52.520;13.450;2022-11-15T21:26:34;641.65;;;566.03;;
13368;SDS011;6753;52.520;13.450;2022-11-15T21:26:45;641.55;;;562.13;;
13368;SDS011;6753;52.520;13.450;2022-11-15T21:26:56;636.90;;;558.05;;
13368;SDS011;6753;52.520;13.450;2022-11-15T21:27:08;635.53;;;555.28;;
13368;SDS011;6753;52.520;13.450;2022-11-15T21:27:18;633.58;;;551.33;;
13368;SDS011;6753;52.520;13.450;2022-11-15T21:27:32;629.55;;;546.05;;
13368;SDS011;6753;52.520;13.450;2022-11-15T21:27:44;628.08;;;546.20;;
13368;SDS011;6753;52.520;13.450;2022-11-15T21:27:55;630.45;;;548.60;;
13368;SDS011;6753;52.520;13.450;2022-11-15T21:28:05;632.35;;;547.83;;
13368;SDS011;6753;52.520;13.450;2022-11-15T21:28:17;634.13;;;549.08;;
13368;SDS011;6753;52.520;13.450;2022-11-15T21:28:28;633.50;;;549.78;;
13368;SDS011;6753;52.520;13.450;2022-11-15T21:28:38;636.45;;;552.00;;
13368;SDS011;6753;52.520;13.450;2022-11-15T21:28:49;637.42;;;549.55;;
13368;SDS011;6753;52.520;13.450;2022-11-15T21:29:00;637.40;;;550.30;;
13368;SDS011;6753;52.520;13.450;2022-11-15T21:29:12;641.72;;;552.83;;
13368;SDS011;6753;52.520;13.450;2022-11-15T21:29:26;643.40;;;552.65;;
13368;SDS011;6753;52.520;13.450;2022-11-15T21:29:37;650.10;;;558.50;;
13368;SDS011;6753;52.520;13.450;2022-11-15T21:29:48;656.45;;;569.83;;
13368;SDS011;6753;52.520;13.450;2022-11-15T21:29:59;672.08;;;586.95;;
13368;SDS011;6753;52.520;13.450;2022-11-15T21:30:10;686.23;;;608.73;;
13368;SDS011;6753;52.520;13.450;2022-11-15T21:30:23;702.47;;;625.10;;
13368;SDS011;6753;52.520;13.450;2022-11-15T21:30:34;711.08;;;633.22;;
13368;SDS011;6753;52.520;13.450;2022-11-15T21:30:51;739.50;;;658.95;;
13368;SDS011;6753;52.520;13.450;2022-11-15T21:31:02;727.42;;;647.92;;
13368;SDS011;6753;52.520;13.450;2022-11-15T21:31:13;711.40;;;633.25;;
13368;SDS011;6753;52.520;13.450;2022-11-15T21:31:24;705.15;;;627.40;;
13368;SDS011;6753;52.520;13.450;2022-11-15T21:31:36;694.70;;;617.97;;
13368;SDS011;6753;52.520;13.450;2022-11-15T21:31:47;667.97;;;591.30;;
13368;SDS011;6753;52.520;13.450;2022-11-15T21:31:59;661.70;;;586.97;;
13368;SDS011;6753;52.520;13.450;2022-11-15T21:32:10;666.05;;;590.10;;
13368;SDS011;6753;52.520;13.450;2022-11-15T21:32:20;664.17;;;586.00;;
13368;SDS011;6753;52.520;13.450;2022-11-15T21:32:31;666.38;;;589.00;;
13368;SDS011;6753;52.520;13.450;2022-11-15T21:32:43;675.58;;;600.65;;
13368;SDS011;6753;52.520;13.450;2022-11-15T21:32:54;684.40;;;608.80;;
13368;SDS011;6753;52.520;13.450;2022-11-15T21:33:06;690.20;;;614.05;;
13368;SDS011;6753;52.520;13.450;2022-11-15T21:33:16;721.70;;;637.03;;
13368;SDS011;6753;52.520;13.450;2022-11-15T21:33:27;1098.90;;;883.80;;
13368;SDS011;6753;52.520;13.450;2022-11-15T21:33:38;1127.75;;;915.97;;
13368;SDS011;6753;52.520;13.450;2022-11-15T21:33:50;1064.22;;;886.78;;
13368;SDS011;6753;52.520;13.450;2022-11-15T21:34:02;1006.97;;;851.90;;
13368;SDS011;6753;52.520;13.450;2022-11-15T21:34:15;975.00;;;835.90;;
13368;SDS011;6753;52.520;13.450;2022-11-15T21:34:26;884.40;;;776.38;;
13368;SDS011;6753;52.520;13.450;2022-11-15T21:34:37;795.83;;;708.10;;
13368;SDS011;6753;52.520;13.450;2022-11-15T21:34:47;988.05;;;827.15;;
13368;SDS011;6753;52.520;13.450;2022-11-15T21:34:59;1037.60;;;877.40;;
13368;SDS011;6753;52.520;13.450;2022-11-15T21:35:10;966.38;;;835.38;;
13368;SDS011;6753;52.520;13.450;2022-11-15T21:35:23;943.88;;;831.63;;
13368;SDS011;6753;52.520;13.450;2022-11-15T21:35:34;927.60;;;824.78;;
13368;SDS011;6753;52.520;13.450;2022-11-15T21:35:45;912.03;;;811.88;;
13368;SDS011;6753;52.520;13.450;2022-11-15T21:35:56;881.17;;;784.50;;
13368;SDS011;6753;52.520;13.450;2022-11-15T21:36:07;859.20;;;765.20;;
13368;SDS011;6753;52.520;13.450;2022-11-15T21:36:18;822.88;;;733.67;;
13368;SDS011;6753;52.520;13.450;2022-11-15T21:36:29;807.00;;;719.70;;
13368;SDS011;6753;52.520;13.450;2022-11-15T21:36:41;769.67;;;686.35;;
13368;SDS011;6753;52.520;13.450;2022-11-15T21:36:52;771.55;;;688.20;;
13368;SDS011;6753;52.520;13.450;2022-11-15T21:37:04;775.88;;;692.17;;
13368;SDS011;6753;52.520;13.450;2022-11-15T21:37:15;773.63;;;690.20;;
13368;SDS011;6753;52.520;13.450;2022-11-15T21:37:26;770.03;;;686.75;;
13368;SDS011;6753;52.520;13.450;2022-11-15T21:37:37;767.28;;;684.28;;
13368;SDS011;6753;52.520;13.450;2022-11-15T21:37:48;774.88;;;691.00;;
13368;SDS011;6753;52.520;13.450;2022-11-15T21:38:00;783.50;;;698.08;;
13368;SDS011;6753;52.520;13.450;2022-11-15T21:38:11;782.97;;;697.75;;
13368;SDS011;6753;52.520;13.450;2022-11-15T21:38:22;801.40;;;714.05;;
13368;SDS011;6753;52.520;13.450;2022-11-15T21:38:33;814.58;;;725.65;;
13368;SDS011;6753;52.520;13.450;2022-11-15T21:38:44;1021.45;;;856.00;;
13368;SDS011;6753;52.520;13.450;2022-11-15T21:38:54;1215.00;;;933.67;;
13368;SDS011;6753;52.520;13.450;2022-11-15T21:39:06;1128.63;;;890.42;;
13368;SDS011;6753;52.520;13.450;2022-11-15T21:39:17;1043.15;;;842.05;;
13368;SDS011;6753;52.520;13.450;2022-11-15T21:39:29;996.08;;;815.33;;
13368;SDS011;6753;52.520;13.450;2022-11-15T21:39:40;968.10;;;800.33;;
13368;SDS011;6753;52.520;13.450;2022-11-15T21:39:51;939.83;;;793.53;;
13368;SDS011;6753;52.520;13.450;2022-11-15T21:40:02;950.28;;;807.08;;
13368;SDS011;6753;52.520;13.450;2022-11-15T21:40:13;1028.50;;;856.60;;
13368;SDS011;6753;52.520;13.450;2022-11-15T21:40:25;1132.28;;;913.65;;
13368;SDS011;6753;52.520;13.450;2022-11-15T21:40:37;1237.78;;;969.80;;
13368;SDS011;6753;52.520;13.450;2022-11-15T21:40:48;1271.65;;;986.53;;
13368;SDS011;6753;52.520;13.450;2022-11-15T21:41:01;1208.53;;;951.22;;
13368;SDS011;6753;52.520;13.450;2022-11-15T21:41:12;1157.18;;;926.22;;
13368;SDS011;6753;52.520;13.450;2022-11-15T21:41:23;1128.00;;;916.40;;
13368;SDS011;6753;52.520;13.450;2022-11-15T21:41:34;1054.57;;;882.60;;
13368;SDS011;6753;52.520;13.450;2022-11-15T21:41:45;951.53;;;823.10;;
13368;SDS011;6753;52.520;13.450;2022-11-15T21:41:56;925.92;;;807.72;;
13368;SDS011;6753;52.520;13.450;2022-11-15T21:42:07;949.58;;;818.83;;
13368;SDS011;6753;52.520;13.450;2022-11-15T21:42:18;958.60;;;828.45;;
13368;SDS011;6753;52.520;13.450;2022-11-15T21:42:29;965.88;;;834.60;;
13368;SDS011;6753;52.520;13.450;2022-11-15T21:42:41;1001.20;;;862.47;;
13368;SDS011;6753;52.520;13.450;2022-11-15T21:42:51;1032.30;;;887.90;;
13368;SDS011;6753;52.520;13.450;2022-11-15T21:43:02;1019.25;;;880.65;;
13368;SDS011;6753;52.520;13.450;2022-11-15T21:43:14;958.13;;;846.20;;
13368;SDS011;6753;52.520;13.450;2022-11-15T21:43:26;909.35;;;809.00;;
13368;SDS011;6753;52.520;13.450;2022-11-15T21:43:37;1082.60;;;886.17;;
13368;SDS011;6753;52.520;13.450;2022-11-15T21:43:48;1153.53;;;920.35;;
13368;SDS011;6753;52.520;13.450;2022-11-15T21:43:59;1143.97;;;921.85;;
13368;SDS011;6753;52.520;13.450;2022-11-15T21:44:11;1088.80;;;894.00;;
13368;SDS011;6753;52.520;13.450;2022-11-15T21:44:23;1048.53;;;873.22;;
13368;SDS011;6753;52.520;13.450;2022-11-15T21:44:34;1010.85;;;855.33;;
13368;SDS011;6753;52.520;13.450;2022-11-15T21:44:45;955.33;;;829.38;;
13368;SDS011;6753;52.520;13.450;2022-11-15T21:44:56;914.97;;;807.13;;
13368;SDS011;6753;52.520;13.450;2022-11-15T21:45:07;898.22;;;798.75;;
13368;SDS011;6753;52.520;13.450;2022-11-15T21:45:18;905.30;;;805.03;;
13368;SDS011;6753;52.520;13.450;2022-11-15T21:45:30;899.00;;;800.13;;
13368;SDS011;6753;52.520;13.450;2022-11-15T21:45:40;899.90;;;801.00;;
13368;SDS011;6753;52.520;13.450;2022-11-15T21:45:56;903.13;;;804.00;;
13368;SDS011;6753;52.520;13.450;2022-11-15T21:46:09;910.80;;;810.58;;
13368;SDS011;6753;52.520;13.450;2022-11-15T21:46:19;936.77;;;829.90;;
13368;SDS011;6753;52.520;13.450;2022-11-15T21:46:30;1526.15;;;999.90;;
13368;SDS011;6753;52.520;13.450;2022-11-15T21:46:41;1439.97;;;999.90;;
13368;SDS011;6753;52.520;13.450;2022-11-15T21:46:52;1369.80;;;999.90;;
13368;SDS011;6753;52.520;13.450;2022-11-15T21:47:04;1305.45;;;994.20;;
13368;SDS011;6753;52.520;13.450;2022-11-15T21:47:15;1233.30;;;962.08;;
13368;SDS011;6753;52.520;13.450;2022-11-15T21:47:26;1136.93;;;922.53;;
13368;SDS011;6753;52.520;13.450;2022-11-15T21:47:37;1026.88;;;876.15;;
13368;SDS011;6753;52.520;13.450;2022-11-15T21:47:48;976.20;;;850.40;;
13368;SDS011;6753;52.520;13.450;2022-11-15T21:47:59;932.90;;;826.57;;
13368;SDS011;6753;52.520;13.450;2022-11-15T21:48:10;921.53;;;818.97;;
13368;SDS011;6753;52.520;13.450;2022-11-15T21:48:21;923.03;;;816.10;;
13368;SDS011;6753;52.520;13.450;2022-11-15T21:48:33;1151.70;;;930.70;;
13368;SDS011;6753;52.520;13.450;2022-11-15T21:48:45;1167.38;;;951.25;;
13368;SDS011;6753;52.520;13.450;2022-11-15T21:48:56;1136.25;;;941.47;;
13368;SDS011;6753;52.520;13.450;2022-11-15T21:49:07;1107.43;;;928.13;;
13368;SDS011;6753;52.520;13.450;2022-11-15T21:49:19;1076.43;;;911.97;;
13368;SDS011;6753;52.520;13.450;2022-11-15T21:49:31;1039.10;;;898.28;;
13368;SDS011;6753;52.520;13.450;2022-11-15T21:49:42;988.75;;;870.25;;
13368;SDS011;6753;52.520;13.450;2022-11-15T21:49:54;959.38;;;852.67;;
13368;SDS011;6753;52.520;13.450;2022-11-15T21:50:08;943.85;;;839.72;;
13368;SDS011;6753;52.520;13.450;2022-11-15T21:50:19;942.35;;;838.22;;
13368;SDS011;6753;52.520;13.450;2022-11-15T21:50:30;939.95;;;836.05;;
13368;SDS011;6753;52.520;13.450;2022-11-15T21:50:41;937.88;;;834.33;;
13368;SDS011;6753;52.520;13.450;2022-11-15T21:50:55;934.50;;;831.20;;
13368;SDS011;6753;52.520;13.450;2022-11-15T21:51:07;933.83;;;829.00;;
13368;SDS011;6753;52.520;13.450;2022-11-15T21:51:20;928.50;;;823.85;;
13368;SDS011;6753;52.520;13.450;2022-11-15T21:51:32;924.85;;;820.42;;
13368;SDS011;6753;52.520;13.450;2022-11-15T21:51:43;921.15;;;818.40;;
13368;SDS011;6753;52.520;13.450;2022-11-15T21:51:54;921.28;;;818.42;;
13368;SDS011;6753;52.520;13.450;2022-11-15T21:52:05;924.85;;;822.40;;
13368;SDS011;6753;52.520;13.450;2022-11-15T21:52:16;922.78;;;820.83;;
13368;SDS011;6753;52.520;13.450;2022-11-15T21:52:28;920.90;;;819.10;;
13368;SDS011;6753;52.520;13.450;2022-11-15T21:52:39;916.03;;;814.85;;
13368;SDS011;6753;52.520;13.450;2022-11-15T21:52:50;911.90;;;811.67;;
13368;SDS011;6753;52.520;13.450;2022-11-15T21:53:01;906.83;;;807.47;;
13368;SDS011;6753;52.520;13.450;2022-11-15T21:53:12;903.92;;;804.92;;
13368;SDS011;6753;52.520;13.450;2022-11-15T21:53:23;902.57;;;803.67;;
13368;SDS011;6753;52.520;13.450;2022-11-15T21:53:35;899.88;;;801.58;;
13368;SDS011;6753;52.520;13.450;2022-11-15T21:53:46;900.30;;;801.80;;
13368;SDS011;6753;52.520;13.450;2022-11-15T21:53:57;898.00;;;799.70;;
13368;SDS011;6753;52.520;13.450;2022-11-15T21:54:09;891.63;;;793.60;;
13368;SDS011;6753;52.520;13.450;2022-11-15T21:54:20;885.70;;;788.67;;
13368;SDS011;6753;52.520;13.450;2022-11-15T21:54:31;903.60;;;803.08;;
13368;SDS011;6753;52.520;13.450;2022-11-15T21:54:43;954.40;;;834.33;;
13368;SDS011;6753;52.520;13.450;2022-11-15T21:54:54;1026.10;;;874.10;;
13368;SDS011;6753;52.520;13.450;2022-11-15T21:55:05;1098.30;;;918.00;;
13368;SDS011;6753;52.520;13.450;2022-11-15T21:55:17;1146.38;;;950.83;;
13368;SDS011;6753;52.520;13.450;2022-11-15T21:55:28;1315.43;;;993.70;;
13368;SDS011;6753;52.520;13.450;2022-11-15T21:55:39;1514.68;;;999.90;;
13368;SDS011;6753;52.520;13.450;2022-11-15T21:55:50;1474.13;;;999.90;;
13368;SDS011;6753;52.520;13.450;2022-11-15T21:56:01;1390.30;;;999.90;;
13368;SDS011;6753;52.520;13.450;2022-11-15T21:56:13;1315.22;;;999.90;;
13368;SDS011;6753;52.520;13.450;2022-11-15T21:56:24;1257.55;;;999.20;;
13368;SDS011;6753;52.520;13.450;2022-11-15T21:56:36;1121.43;;;948.15;;
13368;SDS011;6753;52.520;13.450;2022-11-15T21:56:48;1026.70;;;898.67;;
13368;SDS011;6753;52.520;13.450;2022-11-15T21:56:59;981.58;;;872.63;;
13368;SDS011;6753;52.520;13.450;2022-11-15T21:57:10;978.83;;;870.38;;
13368;SDS011;6753;52.520;13.450;2022-11-15T21:57:21;1008.00;;;883.33;;
13368;SDS011;6753;52.520;13.450;2022-11-15T21:57:32;1044.45;;;900.63;;
13368;SDS011;6753;52.520;13.450;2022-11-15T21:57:43;1072.50;;;916.00;;
13368;SDS011;6753;52.520;13.450;2022-11-15T21:57:55;1086.72;;;922.85;;
13368;SDS011;6753;52.520;13.450;2022-11-15T21:58:06;1096.88;;;923.28;;
13368;SDS011;6753;52.520;13.450;2022-11-15T21:58:17;1085.50;;;915.13;;
13368;SDS011;6753;52.520;13.450;2022-11-15T21:58:28;1062.85;;;901.70;;
13368;SDS011;6753;52.520;13.450;2022-11-15T21:58:39;1040.63;;;889.70;;
13368;SDS011;6753;52.520;13.450;2022-11-15T21:58:51;1030.50;;;879.92;;
13368;SDS011;6753;52.520;13.450;2022-11-15T21:59:02;1021.53;;;873.42;;
13368;SDS011;6753;52.520;13.450;2022-11-15T21:59:13;987.77;;;859.13;;
13368;SDS011;6753;52.520;13.450;2022-11-15T21:59:24;974.97;;;853.20;;
13368;SDS011;6753;52.520;13.450;2022-11-15T21:59:38;976.35;;;855.78;;
13368;SDS011;6753;52.520;13.450;2022-11-15T22:00:09;1018.90;;;883.65;;
13368;SDS011;6753;52.520;13.450;2022-11-15T22:00:39;997.80;;;872.53;;
13368;SDS011;6753;52.520;13.450;2022-11-15T22:01:09;1004.53;;;878.38;;
13368;SDS011;6753;52.520;13.450;2022-11-15T22:01:39;1011.07;;;887.73;;
13368;SDS011;6753;52.520;13.450;2022-11-15T22:02:10;972.38;;;863.33;;
13368;SDS011;6753;52.520;13.450;2022-11-15T22:02:24;967.50;;;856.50;;
13368;SDS011;6753;52.520;13.450;2022-11-15T22:02:35;969.78;;;855.25;;
13368;SDS011;6753;52.520;13.450;2022-11-15T22:02:46;978.75;;;858.78;;
13368;SDS011;6753;52.520;13.450;2022-11-15T22:02:57;988.00;;;866.10;;
13368;SDS011;6753;52.520;13.450;2022-11-15T22:03:08;991.97;;;872.35;;
13368;SDS011;6753;52.520;13.450;2022-11-15T22:03:20;992.15;;;874.22;;
13368;SDS011;6753;52.520;13.450;2022-11-15T22:03:31;991.45;;;876.55;;
13368;SDS011;6753;52.520;13.450;2022-11-15T22:03:42;985.97;;;874.72;;
13368;SDS011;6753;52.520;13.450;2022-11-15T22:03:53;980.45;;;867.53;;
13368;SDS011;6753;52.520;13.450;2022-11-15T22:04:04;971.78;;;860.97;;
13368;SDS011;6753;52.520;13.450;2022-11-15T22:04:16;973.20;;;858.72;;
13368;SDS011;6753;52.520;13.450;2022-11-15T22:04:28;973.47;;;856.40;;
13368;SDS011;6753;52.520;13.450;2022-11-15T22:04:40;973.03;;;856.22;;
13368;SDS011;6753;52.520;13.450;2022-11-15T22:04:51;970.00;;;857.30;;
13368;SDS011;6753;52.520;13.450;2022-11-15T22:05:03;966.55;;;855.67;;
13368;SDS011;6753;52.520;13.450;2022-11-15T22:05:14;964.85;;;854.22;;
13368;SDS011;6753;52.520;13.450;2022-11-15T22:05:25;963.95;;;856.40;;
13368;SDS011;6753;52.520;13.450;2022-11-15T22:05:36;964.22;;;857.15;;
13368;SDS011;6753;52.520;13.450;2022-11-15T22:05:47;962.00;;;854.58;;
13368;SDS011;6753;52.520;13.450;2022-11-15T22:05:58;982.50;;;862.60;;
13368;SDS011;6753;52.520;13.450;2022-11-15T22:06:10;987.33;;;866.53;;
13368;SDS011;6753;52.520;13.450;2022-11-15T22:06:22;988.90;;;866.22;;
13368;SDS011;6753;52.520;13.450;2022-11-15T22:06:33;993.75;;;870.13;;
13368;SDS011;6753;52.520;13.450;2022-11-15T22:06:45;1007.00;;;877.13;;
13368;SDS011;6753;52.520;13.450;2022-11-15T22:06:56;1001.80;;;877.97;;
13368;SDS011;6753;52.520;13.450;2022-11-15T22:07:07;1009.60;;;883.92;;
13368;SDS011;6753;52.520;13.450;2022-11-15T22:07:18;1009.97;;;886.80;;
13368;SDS011;6753;52.520;13.450;2022-11-15T22:07:29;1009.97;;;885.63;;
13368;SDS011;6753;52.520;13.450;2022-11-15T22:07:41;1002.50;;;881.30;;
13368;SDS011;6753;52.520;13.450;2022-11-15T22:07:52;994.30;;;876.92;;
13368;SDS011;6753;52.520;13.450;2022-11-15T22:08:03;990.10;;;872.75;;
13368;SDS011;6753;52.520;13.450;2022-11-15T22:08:14;985.05;;;868.65;;
13368;SDS011;6753;52.520;13.450;2022-11-15T22:08:25;985.03;;;867.72;;
13368;SDS011;6753;52.520;13.450;2022-11-15T22:08:37;995.65;;;870.80;;
13368;SDS011;6753;52.520;13.450;2022-11-15T22:08:48;1000.35;;;873.20;;
13368;SDS011;6753;52.520;13.450;2022-11-15T22:08:59;1005.85;;;876.72;;
13368;SDS011;6753;52.520;13.450;2022-11-15T22:09:11;1012.10;;;880.80;;
13368;SDS011;6753;52.520;13.450;2022-11-15T22:09:22;1013.88;;;881.88;;
13368;SDS011;6753;52.520;13.450;2022-11-15T22:09:33;1006.08;;;878.92;;
13368;SDS011;6753;52.520;13.450;2022-11-15T22:09:44;1000.60;;;876.05;;
13368;SDS011;6753;52.520;13.450;2022-11-15T22:09:55;991.97;;;870.58;;
13368;SDS011;6753;52.520;13.450;2022-11-15T22:10:07;1007.75;;;879.63;;
13368;SDS011;6753;52.520;13.450;2022-11-15T22:10:20;1027.18;;;888.53;;
13368;SDS011;6753;52.520;13.450;2022-11-15T22:10:31;1026.88;;;889.65;;
13368;SDS011;6753;52.520;13.450;2022-11-15T22:10:44;1028.00;;;891.97;;
13368;SDS011;6753;52.520;13.450;2022-11-15T22:10:55;1031.65;;;893.55;;
13368;SDS011;6753;52.520;13.450;2022-11-15T22:11:07;1012.53;;;881.38;;
13368;SDS011;6753;52.520;13.450;2022-11-15T22:11:18;988.00;;;869.13;;
13368;SDS011;6753;52.520;13.450;2022-11-15T22:11:29;987.60;;;866.22;;
13368;SDS011;6753;52.520;13.450;2022-11-15T22:11:41;990.33;;;866.55;;
13368;SDS011;6753;52.520;13.450;2022-11-15T22:11:52;992.58;;;868.08;;
13368;SDS011;6753;52.520;13.450;2022-11-15T22:12:04;995.47;;;869.65;;
13368;SDS011;6753;52.520;13.450;2022-11-15T22:12:15;997.65;;;872.28;;